Stolt Effort — ZCSP6 — position and weather

sailwx.info

Track history (hours):
 
Tides and Currents Weather Stations Pressure Air Temp Water Temp Dewpoint Dewpoint Depression Visibility Wind Speed Wind Dir Waves Ship Positions

Stolt Effort

Last reported at 2018-Jan-01 01:54 UTC. Time now 2018-Jan-21 00:50 UTC.
Position N 01°23' E 103°15'.
Warning: this ship's position is 19 days out of date.

Length 176 m; draft 10.5 m.

Type: Ship. MMSI: 319445000.

Date/timePositionNaut miles runAvg speedWind from/ knotsBaromVisibWave heightAir tempDewpointWater temp
2018-Jan-01 01:54N 01°23' E 103°15'612.4
2018-Jan-01 01:26N 01°19' E 103°20'1111.8
2018-Jan-01 00:30N 01°13' E 103°29'13 3.7
2017-Dec-31 20:57N 01°11' E 103°42'0 0.2
2017-Dec-31 20:27N 01°11' E 103°42'0 0.1
2017-Dec-31 19:45N 01°11' E 103°42'0 0.1
2017-Dec-31 19:30N 01°11' E 103°42'0 0.1
2017-Dec-31 18:48N 01°11' E 103°42'0 0.2
2017-Dec-31 18:24N 01°11' E 103°42'0 0.1
2017-Dec-31 17:51N 01°11' E 103°42'0 0.1
2017-Dec-31 17:24N 01°11' E 103°42'0 0.1
2017-Dec-31 16:48N 01°11' E 103°42'0 0.1
2017-Dec-31 15:39N 01°11' E 103°42'0 0.1
2017-Dec-31 15:27N 01°11' E 103°42'0 0.1
2017-Dec-31 14:57N 01°11' E 103°42'0 0.1
2017-Dec-31 14:30N 01°11' E 103°42'0 0.0
2017-Dec-31 13:54N 01°11' E 103°42'0 0.0
2017-Dec-31 13:30N 01°11' E 103°42'0 0.0
2017-Dec-31 12:51N 01°11' E 103°42'0 0.2
2017-Dec-31 12:30N 01°11' E 103°42'0 0.1
2017-Dec-31 11:57N 01°11' E 103°42'0 0.1
2017-Dec-31 11:30N 01°11' E 103°42'0 0.0
2017-Dec-31 10:57N 01°11' E 103°42'0 0.0
2017-Dec-31 10:27N 01°11' E 103°42'0 0.0
2017-Dec-31 09:57N 01°11' E 103°42'0 0.1
2017-Dec-31 09:27N 01°11' E 103°42'0 0.1
2017-Dec-31 08:57N 01°11' E 103°42'0 0.1
2017-Dec-31 08:21N 01°11' E 103°42'0 0.0
2017-Dec-31 07:57N 01°11' E 103°42'0 0.0
2017-Dec-31 07:30N 01°11' E 103°42'0 0.1
2017-Dec-31 06:57N 01°11' E 103°42'0 0.1
2017-Dec-31 06:21N 01°11' E 103°42'0 0.1
2017-Dec-31 05:54N 01°11' E 103°42'0 0.0
2017-Dec-31 05:24N 01°11' E 103°42'0 0.1
2017-Dec-31 04:57N 01°11' E 103°42'0 0.2
2017-Dec-31 04:30N 01°11' E 103°42'0 0.0
2017-Dec-31 03:57N 01°11' E 103°42'0 0.0
2017-Dec-31 03:27N 01°11' E 103°42'0 0.0
2017-Dec-31 02:57N 01°11' E 103°42'0 0.1
2017-Dec-31 02:27N 01°11' E 103°42'0 0.8
2017-Dec-31 02:01N 01°11' E 103°42'3 6.3
2017-Dec-31 01:31N 01°08' E 103°44'612.3
2017-Dec-31 01:00N 01°11' E 103°49'612.4
2017-Dec-31 00:30N 01°14' E 103°55'711.9
2017-Dec-30 23:55N 01°16' E 104°02'511.9
2017-Dec-30 23:30N 01°18' E 104°06'610.4
2017-Dec-30 22:58N 01°22' E 104°02'8 8.8
2017-Dec-30 22:04N 01°26' E 103°55'1 8.4
2017-Dec-30 22:00N 01°26' E 103°54'0 0.0
2017-Dec-30 09:30N 01°26' E 103°54'0 0.1
2017-Dec-30 08:59N 01°26' E 103°54'8 6.5
2017-Dec-30 07:41N 01°22' E 104°02'212.3
2017-Dec-30 07:30N 01°21' E 104°03'5 0.2
2017-Dec-29 08:06N 01°19' E 104°08'0 0.2
2017-Dec-29 07:48N 01°19' E 104°08'0 0.2
2017-Dec-29 07:25N 01°19' E 104°08'  
2017-Dec-22 07:15N 01°16' E 104°13'1416.1
2017-Dec-22 06:22N 01°14' E 103°59'615.8
2017-Dec-22 06:01N 01°12' E 103°53'815.6
2017-Dec-22 05:30N 01°08' E 103°46'714.5
2017-Dec-22 05:00N 01°04' E 103°41'713.5
2017-Dec-22 04:30N 01°06' E 103°34'510.2
2017-Dec-22 04:00N 01°11' E 103°36'611.5
2017-Dec-22 03:30N 01°11' E 103°41'0 0.8
2017-Dec-22 02:54N 01°12' E 103°42'0 0.2
2017-Dec-22 02:30N 01°12' E 103°42'0 0.1
2017-Dec-22 01:57N 01°12' E 103°42'  
Track history (hours):
 
Tides and Currents Weather Stations Pressure Air Temp Water Temp Dewpoint Dewpoint Depression Visibility Wind Speed Wind Dir Waves Ship Positions

Stolt Effort

Last reported at 2018-Jan-01 01:54 UTC. Time now 2018-Jan-21 00:50 UTC.
Position N 01°23' E 103°15'.
Warning: this ship's position is 19 days out of date.

Length 176 m; draft 10.5 m.

Type: Ship. MMSI: 319445000.

Date/timePositionNaut miles runAvg speedWind from/ knotsBaromVisibWave heightAir tempDewpointWater temp
2018-Jan-01 01:54N 01°23' E 103°15'612.4
2018-Jan-01 01:26N 01°19' E 103°20'1111.8
2018-Jan-01 00:30N 01°13' E 103°29'13 3.7
2017-Dec-31 20:57N 01°11' E 103°42'0 0.2
2017-Dec-31 20:27N 01°11' E 103°42'0 0.1
2017-Dec-31 19:45N 01°11' E 103°42'0 0.1
2017-Dec-31 19:30N 01°11' E 103°42'0 0.1
2017-Dec-31 18:48N 01°11' E 103°42'0 0.2
2017-Dec-31 18:24N 01°11' E 103°42'0 0.1
2017-Dec-31 17:51N 01°11' E 103°42'0 0.1
2017-Dec-31 17:24N 01°11' E 103°42'0 0.1
2017-Dec-31 16:48N 01°11' E 103°42'0 0.1
2017-Dec-31 15:39N 01°11' E 103°42'0 0.1
2017-Dec-31 15:27N 01°11' E 103°42'0 0.1
2017-Dec-31 14:57N 01°11' E 103°42'0 0.1
2017-Dec-31 14:30N 01°11' E 103°42'0 0.0
2017-Dec-31 13:54N 01°11' E 103°42'0 0.0
2017-Dec-31 13:30N 01°11' E 103°42'0 0.0
2017-Dec-31 12:51N 01°11' E 103°42'0 0.2
2017-Dec-31 12:30N 01°11' E 103°42'0 0.1
2017-Dec-31 11:57N 01°11' E 103°42'0 0.1
2017-Dec-31 11:30N 01°11' E 103°42'0 0.0
2017-Dec-31 10:57N 01°11' E 103°42'0 0.0
2017-Dec-31 10:27N 01°11' E 103°42'0 0.0
2017-Dec-31 09:57N 01°11' E 103°42'0 0.1
2017-Dec-31 09:27N 01°11' E 103°42'0 0.1
2017-Dec-31 08:57N 01°11' E 103°42'0 0.1
2017-Dec-31 08:21N 01°11' E 103°42'0 0.0
2017-Dec-31 07:57N 01°11' E 103°42'0 0.0
2017-Dec-31 07:30N 01°11' E 103°42'0 0.1
2017-Dec-31 06:57N 01°11' E 103°42'0 0.1
2017-Dec-31 06:21N 01°11' E 103°42'0 0.1
2017-Dec-31 05:54N 01°11' E 103°42'0 0.0
2017-Dec-31 05:24N 01°11' E 103°42'0 0.1
2017-Dec-31 04:57N 01°11' E 103°42'0 0.2
2017-Dec-31 04:30N 01°11' E 103°42'0 0.0
2017-Dec-31 03:57N 01°11' E 103°42'0 0.0
2017-Dec-31 03:27N 01°11' E 103°42'0 0.0
2017-Dec-31 02:57N 01°11' E 103°42'0 0.1
2017-Dec-31 02:27N 01°11' E 103°42'0 0.8
2017-Dec-31 02:01N 01°11' E 103°42'3 6.3
2017-Dec-31 01:31N 01°08' E 103°44'612.3
2017-Dec-31 01:00N 01°11' E 103°49'612.4
2017-Dec-31 00:30N 01°14' E 103°55'711.9
2017-Dec-30 23:55N 01°16' E 104°02'511.9
2017-Dec-30 23:30N 01°18' E 104°06'610.4
2017-Dec-30 22:58N 01°22' E 104°02'8 8.8
2017-Dec-30 22:04N 01°26' E 103°55'1 8.4
2017-Dec-30 22:00N 01°26' E 103°54'0 0.0
2017-Dec-30 09:30N 01°26' E 103°54'0 0.1
2017-Dec-30 08:59N 01°26' E 103°54'8 6.5
2017-Dec-30 07:41N 01°22' E 104°02'212.3
2017-Dec-30 07:30N 01°21' E 104°03'5 0.2
2017-Dec-29 08:06N 01°19' E 104°08'0 0.2
2017-Dec-29 07:48N 01°19' E 104°08'0 0.2
2017-Dec-29 07:25N 01°19' E 104°08'  
2017-Dec-22 07:15N 01°16' E 104°13'1416.1
2017-Dec-22 06:22N 01°14' E 103°59'615.8
2017-Dec-22 06:01N 01°12' E 103°53'815.6
2017-Dec-22 05:30N 01°08' E 103°46'714.5
2017-Dec-22 05:00N 01°04' E 103°41'713.5
2017-Dec-22 04:30N 01°06' E 103°34'510.2
2017-Dec-22 04:00N 01°11' E 103°36'611.5
2017-Dec-22 03:30N 01°11' E 103°41'0 0.8
2017-Dec-22 02:54N 01°12' E 103°42'0 0.2
2017-Dec-22 02:30N 01°12' E 103°42'0 0.1
2017-Dec-22 01:57N 01°12' E 103°42'  

Dump ship's entire track history